Urbana, Ohio
Current Conditions -  °F | °C
As of 3:10 PM on Saturday 20 Dec 2014 (Local Time) from KEDJ Reporting Station
Broken Clouds Broken Clouds  
Wind Chill: 28°   Ceiling: 2300
Heat Index: 28°   Visibility: 9mi
Dew Point: 21°   Wind: 0mph
Humidity: 74%   Direction: NA
Pressure: 30.24"   Gusts: NA
Location:  40.11°N, 83.75°W
Report Text: KEDJ 202010Z AUTO 00000KT 9SM BKN023 M02/M06 A3024 RMK AO1
Loading
Personal Weather Stations






























Interactive Weather Map New forecast layout! Learn more

10-Day Weather Forecast

Advertisements
Track Severe Weather on mobile